SACO/COR METAR and TAF weather

Enter ICAO airport designator
Station Type Date Time Source
SACO METAR 2019/07/20 05:00 UTC NOAA

SACO 200500Z 34002KT CAVOK 10/08 Q1011 NOSIG


Station Type Date Time Source
SACO Decoded METAR 2019/07/20 05:00 UTC NOAA

Cordoba Aerodrome, Argentina (SACO) 31-19S 064-13W 474M
Jul 20, 2019 - 01:00 AM EDT / 2019.07.20 0500 UTC
Wind: from the NNW (340 degrees) at 2 MPH (2 KT):0
Visibility: greater than 7 mile(s):0
Temperature: 50 F (10 C)
Dew Point: 46 F (8 C)
Relative Humidity: 87%
Pressure (altimeter): 29.85 in. Hg (1011 hPa)
ob: SACO 200500Z 34002KT CAVOK 10/08 Q1011 NOSIG
cycle: 5

Station Type Date Time Source
SACO TAF 2019/07/20 06:09 UTC NOAA

TAF TAF SACO 200500Z 2006/2106 34005KT CAVOK TX22/2018Z TN06/2010Z
BECMG 2008/2010 36002KT 3000 BR BKN008
BECMG 2013/2015 02015KT 8000 BKN020

Example: see airport list